sensor_id;sensor_type;location;lat;lon;timestamp;temperature;humidity
9810;DHT22;4944;52.514;13.192;2024-01-15T00:01:14;2.20;99.90
9810;DHT22;4944;52.514;13.192;2024-01-15T00:03:41;2.20;99.90
9810;DHT22;4944;52.514;13.192;2024-01-15T00:06:08;2.20;99.90
9810;DHT22;4944;52.514;13.192;2024-01-15T00:08:35;2.20;99.90
9810;DHT22;4944;52.514;13.192;2024-01-15T00:11:01;2.20;99.90
9810;DHT22;4944;52.514;13.192;2024-01-15T00:13:28;2.20;99.90
9810;DHT22;4944;52.514;13.192;2024-01-15T00:15:56;2.20;99.90
9810;DHT22;4944;52.514;13.192;2024-01-15T00:18:23;2.30;99.90
9810;DHT22;4944;52.514;13.192;2024-01-15T00:20:50;2.20;99.90
9810;DHT22;4944;52.514;13.192;2024-01-15T00:23:17;2.30;99.90
9810;DHT22;4944;52.514;13.192;2024-01-15T00:25:44;2.30;99.90
9810;DHT22;4944;52.514;13.192;2024-01-15T00:28:11;2.30;99.90
9810;DHT22;4944;52.514;13.192;2024-01-15T00:30:37;2.30;99.90
9810;DHT22;4944;52.514;13.192;2024-01-15T00:33:05;2.30;99.90
9810;DHT22;4944;52.514;13.192;2024-01-15T00:35:32;2.40;99.90
9810;DHT22;4944;52.514;13.192;2024-01-15T00:37:59;2.40;99.90
9810;DHT22;4944;52.514;13.192;2024-01-15T00:40:26;2.40;99.90
9810;DHT22;4944;52.514;13.192;2024-01-15T00:42:53;2.40;99.90
9810;DHT22;4944;52.514;13.192;2024-01-15T00:45:20;2.40;99.90
9810;DHT22;4944;52.514;13.192;2024-01-15T00:47:47;2.40;99.90
9810;DHT22;4944;52.514;13.192;2024-01-15T00:50:15;2.40;99.90
9810;DHT22;4944;52.514;13.192;2024-01-15T00:52:42;2.50;99.90
9810;DHT22;4944;52.514;13.192;2024-01-15T00:55:09;2.50;99.90
9810;DHT22;4944;52.514;13.192;2024-01-15T00:57:36;2.50;99.90
9810;DHT22;4944;52.514;13.192;2024-01-15T01:00:04;2.40;99.90
9810;DHT22;4944;52.514;13.192;2024-01-15T01:02:32;2.40;99.90
9810;DHT22;4944;52.514;13.192;2024-01-15T01:04:58;2.40;99.90
9810;DHT22;4944;52.514;13.192;2024-01-15T01:07:27;2.30;99.90
9810;DHT22;4944;52.514;13.192;2024-01-15T01:09:53;2.40;99.90
9810;DHT22;4944;52.514;13.192;2024-01-15T01:12:20;2.30;99.90
9810;DHT22;4944;52.514;13.192;2024-01-15T01:14:47;2.20;99.90
9810;DHT22;4944;52.514;13.192;2024-01-15T01:17:14;2.20;99.90
9810;DHT22;4944;52.514;13.192;2024-01-15T01:19:41;2.20;99.90
9810;DHT22;4944;52.514;13.192;2024-01-15T01:22:08;2.10;99.90
9810;DHT22;4944;52.514;13.192;2024-01-15T01:24:36;2.10;99.90
9810;DHT22;4944;52.514;13.192;2024-01-15T01:27:03;2.10;99.90
9810;DHT22;4944;52.514;13.192;2024-01-15T01:29:30;2.10;99.90
9810;DHT22;4944;52.514;13.192;2024-01-15T01:31:57;2.00;99.90
9810;DHT22;4944;52.514;13.192;2024-01-15T01:34:24;2.10;99.90
9810;DHT22;4944;52.514;13.192;2024-01-15T01:36:51;2.00;99.90
9810;DHT22;4944;52.514;13.192;2024-01-15T01:39:18;2.00;99.90
9810;DHT22;4944;52.514;13.192;2024-01-15T01:41:46;2.00;99.90
9810;DHT22;4944;52.514;13.192;2024-01-15T01:44:13;1.90;99.90
9810;DHT22;4944;52.514;13.192;2024-01-15T01:46:40;1.90;99.90
9810;DHT22;4944;52.514;13.192;2024-01-15T01:49:08;1.90;99.90
9810;DHT22;4944;52.514;13.192;2024-01-15T01:51:35;1.80;99.90
9810;DHT22;4944;52.514;13.192;2024-01-15T01:54:04;1.90;99.90
9810;DHT22;4944;52.514;13.192;2024-01-15T01:56:31;1.90;99.90
9810;DHT22;4944;52.514;13.192;2024-01-15T01:58:59;1.90;99.90
9810;DHT22;4944;52.514;13.192;2024-01-15T02:01:26;1.90;99.90
9810;DHT22;4944;52.514;13.192;2024-01-15T02:03:53;1.90;99.90
9810;DHT22;4944;52.514;13.192;2024-01-15T02:06:22;1.90;99.90
9810;DHT22;4944;52.514;13.192;2024-01-15T02:08:50;2.00;99.90
9810;DHT22;4944;52.514;13.192;2024-01-15T02:11:17;2.00;99.90
9810;DHT22;4944;52.514;13.192;2024-01-15T02:13:44;2.00;99.90
9810;DHT22;4944;52.514;13.192;2024-01-15T02:16:12;2.00;99.90
9810;DHT22;4944;52.514;13.192;2024-01-15T02:18:40;2.00;99.90
9810;DHT22;4944;52.514;13.192;2024-01-15T02:21:07;2.00;99.90
9810;DHT22;4944;52.514;13.192;2024-01-15T02:23:36;2.00;99.90
9810;DHT22;4944;52.514;13.192;2024-01-15T02:26:03;2.10;99.90
9810;DHT22;4944;52.514;13.192;2024-01-15T02:28:31;2.00;99.90
9810;DHT22;4944;52.514;13.192;2024-01-15T02:30:59;2.00;99.90
9810;DHT22;4944;52.514;13.192;2024-01-15T02:33:26;2.10;99.90
9810;DHT22;4944;52.514;13.192;2024-01-15T02:35:53;2.00;99.90
9810;DHT22;4944;52.514;13.192;2024-01-15T02:38:19;2.10;99.90
9810;DHT22;4944;52.514;13.192;2024-01-15T02:40:49;2.10;99.90
9810;DHT22;4944;52.514;13.192;2024-01-15T02:43:16;2.10;99.90
9810;DHT22;4944;52.514;13.192;2024-01-15T02:45:44;2.10;99.90
9810;DHT22;4944;52.514;13.192;2024-01-15T02:48:11;2.10;99.90
9810;DHT22;4944;52.514;13.192;2024-01-15T02:50:38;2.10;99.90
9810;DHT22;4944;52.514;13.192;2024-01-15T02:53:05;2.00;99.90
9810;DHT22;4944;52.514;13.192;2024-01-15T02:55:32;2.10;99.90
9810;DHT22;4944;52.514;13.192;2024-01-15T02:58:00;2.00;99.90
9810;DHT22;4944;52.514;13.192;2024-01-15T03:00:27;2.00;99.90
9810;DHT22;4944;52.514;13.192;2024-01-15T03:02:55;2.10;99.90
9810;DHT22;4944;52.514;13.192;2024-01-15T03:05:22;2.00;99.90
9810;DHT22;4944;52.514;13.192;2024-01-15T03:07:49;2.00;99.90
9810;DHT22;4944;52.514;13.192;2024-01-15T03:10:16;2.10;99.90
9810;DHT22;4944;52.514;13.192;2024-01-15T03:12:43;2.00;99.90
9810;DHT22;4944;52.514;13.192;2024-01-15T03:15:11;2.00;99.90
9810;DHT22;4944;52.514;13.192;2024-01-15T03:17:38;2.00;99.90
9810;DHT22;4944;52.514;13.192;2024-01-15T03:20:06;2.00;99.90
9810;DHT22;4944;52.514;13.192;2024-01-15T03:22:33;2.10;99.90
9810;DHT22;4944;52.514;13.192;2024-01-15T03:25:00;2.10;99.90
9810;DHT22;4944;52.514;13.192;2024-01-15T03:27:27;2.10;99.90
9810;DHT22;4944;52.514;13.192;2024-01-15T03:29:54;2.10;99.90
9810;DHT22;4944;52.514;13.192;2024-01-15T03:32:22;2.10;99.90
9810;DHT22;4944;52.514;13.192;2024-01-15T03:34:49;2.10;99.90
9810;DHT22;4944;52.514;13.192;2024-01-15T03:37:18;2.10;99.90
9810;DHT22;4944;52.514;13.192;2024-01-15T03:39:45;2.20;99.90
9810;DHT22;4944;52.514;13.192;2024-01-15T03:42:12;2.10;99.90
9810;DHT22;4944;52.514;13.192;2024-01-15T03:44:40;2.20;99.90
9810;DHT22;4944;52.514;13.192;2024-01-15T03:47:06;2.20;99.90
9810;DHT22;4944;52.514;13.192;2024-01-15T03:49:35;2.20;99.90
9810;DHT22;4944;52.514;13.192;2024-01-15T03:52:02;2.20;99.90
9810;DHT22;4944;52.514;13.192;2024-01-15T03:54:28;2.20;99.90
9810;DHT22;4944;52.514;13.192;2024-01-15T03:56:55;2.20;99.90
9810;DHT22;4944;52.514;13.192;2024-01-15T03:59:22;2.20;99.90
9810;DHT22;4944;52.514;13.192;2024-01-15T04:01:49;2.20;99.90
9810;DHT22;4944;52.514;13.192;2024-01-15T04:04:17;2.10;99.90
9810;DHT22;4944;52.514;13.192;2024-01-15T04:06:45;2.10;99.90
9810;DHT22;4944;52.514;13.192;2024-01-15T04:09:12;2.10;99.90
9810;DHT22;4944;52.514;13.192;2024-01-15T04:11:39;2.10;99.90
9810;DHT22;4944;52.514;13.192;2024-01-15T04:14:06;2.10;99.90
9810;DHT22;4944;52.514;13.192;2024-01-15T04:16:33;2.10;99.90
9810;DHT22;4944;52.514;13.192;2024-01-15T04:19:00;2.10;99.90
9810;DHT22;4944;52.514;13.192;2024-01-15T04:21:27;2.10;99.90
9810;DHT22;4944;52.514;13.192;2024-01-15T04:23:55;2.10;99.90
9810;DHT22;4944;52.514;13.192;2024-01-15T04:26:22;2.10;99.90
9810;DHT22;4944;52.514;13.192;2024-01-15T04:28:49;2.10;99.90
9810;DHT22;4944;52.514;13.192;2024-01-15T04:31:23;2.20;99.90
9810;DHT22;4944;52.514;13.192;2024-01-15T04:33:50;2.20;99.90
9810;DHT22;4944;52.514;13.192;2024-01-15T04:36:17;2.20;99.90
9810;DHT22;4944;52.514;13.192;2024-01-15T04:38:44;2.20;99.90
9810;DHT22;4944;52.514;13.192;2024-01-15T04:41:13;2.20;99.90
9810;DHT22;4944;52.514;13.192;2024-01-15T04:43:40;2.20;99.90
9810;DHT22;4944;52.514;13.192;2024-01-15T04:46:07;2.20;99.90
9810;DHT22;4944;52.514;13.192;2024-01-15T04:48:34;2.20;99.90
9810;DHT22;4944;52.514;13.192;2024-01-15T04:51:04;2.20;99.90
9810;DHT22;4944;52.514;13.192;2024-01-15T04:53:31;2.20;99.90
9810;DHT22;4944;52.514;13.192;2024-01-15T04:55:58;2.20;99.90
9810;DHT22;4944;52.514;13.192;2024-01-15T04:58:26;2.20;99.90
9810;DHT22;4944;52.514;13.192;2024-01-15T05:00:53;2.20;99.90
9810;DHT22;4944;52.514;13.192;2024-01-15T05:03:20;2.30;99.90
9810;DHT22;4944;52.514;13.192;2024-01-15T05:05:47;2.30;99.90
9810;DHT22;4944;52.514;13.192;2024-01-15T05:08:14;2.30;99.90
9810;DHT22;4944;52.514;13.192;2024-01-15T05:10:41;2.30;99.90
9810;DHT22;4944;52.514;13.192;2024-01-15T05:13:08;2.30;99.90
9810;DHT22;4944;52.514;13.192;2024-01-15T05:15:36;2.20;99.90
9810;DHT22;4944;52.514;13.192;2024-01-15T05:18:03;2.20;99.90
9810;DHT22;4944;52.514;13.192;2024-01-15T05:20:30;2.30;99.90
9810;DHT22;4944;52.514;13.192;2024-01-15T05:22:57;2.30;99.90
9810;DHT22;4944;52.514;13.192;2024-01-15T05:25:24;2.30;99.90
9810;DHT22;4944;52.514;13.192;2024-01-15T05:27:51;2.30;99.90
9810;DHT22;4944;52.514;13.192;2024-01-15T05:30:18;2.30;99.90
9810;DHT22;4944;52.514;13.192;2024-01-15T05:32:46;2.30;99.90
9810;DHT22;4944;52.514;13.192;2024-01-15T05:35:13;2.40;99.90
9810;DHT22;4944;52.514;13.192;2024-01-15T05:37:43;2.40;99.90
9810;DHT22;4944;52.514;13.192;2024-01-15T05:40:11;2.40;99.90
9810;DHT22;4944;52.514;13.192;2024-01-15T05:42:38;2.40;99.90
9810;DHT22;4944;52.514;13.192;2024-01-15T05:45:05;2.40;99.90
9810;DHT22;4944;52.514;13.192;2024-01-15T05:47:32;2.40;99.90
9810;DHT22;4944;52.514;13.192;2024-01-15T05:50:01;2.40;99.90
9810;DHT22;4944;52.514;13.192;2024-01-15T05:52:28;2.40;99.90
9810;DHT22;4944;52.514;13.192;2024-01-15T05:54:55;2.40;99.90
9810;DHT22;4944;52.514;13.192;2024-01-15T05:57:22;2.30;99.90
9810;DHT22;4944;52.514;13.192;2024-01-15T05:59:49;2.30;99.90
9810;DHT22;4944;52.514;13.192;2024-01-15T06:02:16;2.30;99.90
9810;DHT22;4944;52.514;13.192;2024-01-15T06:04:43;2.30;99.90
9810;DHT22;4944;52.514;13.192;2024-01-15T06:07:11;2.30;99.90
9810;DHT22;4944;52.514;13.192;2024-01-15T06:09:38;2.40;99.90
9810;DHT22;4944;52.514;13.192;2024-01-15T06:12:06;2.30;99.90
9810;DHT22;4944;52.514;13.192;2024-01-15T06:14:33;2.40;99.90
9810;DHT22;4944;52.514;13.192;2024-01-15T06:17:00;2.40;99.90
9810;DHT22;4944;52.514;13.192;2024-01-15T06:19:27;2.40;99.90
9810;DHT22;4944;52.514;13.192;2024-01-15T06:21:54;2.40;99.90
9810;DHT22;4944;52.514;13.192;2024-01-15T06:24:22;2.40;99.90
9810;DHT22;4944;52.514;13.192;2024-01-15T06:26:49;2.40;99.90
9810;DHT22;4944;52.514;13.192;2024-01-15T06:29:16;2.30;99.90
9810;DHT22;4944;52.514;13.192;2024-01-15T06:31:43;2.30;99.90
9810;DHT22;4944;52.514;13.192;2024-01-15T06:34:10;2.30;99.90
9810;DHT22;4944;52.514;13.192;2024-01-15T06:36:36;2.30;99.90
9810;DHT22;4944;52.514;13.192;2024-01-15T06:39:03;2.30;99.90
9810;DHT22;4944;52.514;13.192;2024-01-15T06:41:32;2.30;99.90
9810;DHT22;4944;52.514;13.192;2024-01-15T06:43:59;2.30;99.90
9810;DHT22;4944;52.514;13.192;2024-01-15T06:46:25;2.40;99.90
9810;DHT22;4944;52.514;13.192;2024-01-15T06:48:52;2.40;99.90
9810;DHT22;4944;52.514;13.192;2024-01-15T06:51:20;2.40;99.90
9810;DHT22;4944;52.514;13.192;2024-01-15T06:53:46;2.40;99.90
9810;DHT22;4944;52.514;13.192;2024-01-15T06:56:13;2.50;99.90
9810;DHT22;4944;52.514;13.192;2024-01-15T06:58:42;2.50;99.90
9810;DHT22;4944;52.514;13.192;2024-01-15T07:01:09;2.50;99.90
9810;DHT22;4944;52.514;13.192;2024-01-15T07:03:35;2.60;99.90
9810;DHT22;4944;52.514;13.192;2024-01-15T07:06:03;2.50;99.90
9810;DHT22;4944;52.514;13.192;2024-01-15T07:08:30;2.60;99.90
9810;DHT22;4944;52.514;13.192;2024-01-15T07:10:57;2.60;99.90
9810;DHT22;4944;52.514;13.192;2024-01-15T07:13:24;2.60;99.90
9810;DHT22;4944;52.514;13.192;2024-01-15T07:15:52;2.70;99.90
9810;DHT22;4944;52.514;13.192;2024-01-15T07:18:19;2.70;99.90
9810;DHT22;4944;52.514;13.192;2024-01-15T07:20:46;2.70;99.90
9810;DHT22;4944;52.514;13.192;2024-01-15T07:23:12;2.70;99.90
9810;DHT22;4944;52.514;13.192;2024-01-15T07:25:39;2.70;99.90
9810;DHT22;4944;52.514;13.192;2024-01-15T07:28:06;2.70;99.90
9810;DHT22;4944;52.514;13.192;2024-01-15T07:30:33;2.70;99.90
9810;DHT22;4944;52.514;13.192;2024-01-15T07:33:01;2.70;99.90
9810;DHT22;4944;52.514;13.192;2024-01-15T07:35:29;2.70;99.90
9810;DHT22;4944;52.514;13.192;2024-01-15T07:37:56;2.70;99.90
9810;DHT22;4944;52.514;13.192;2024-01-15T07:40:24;2.70;99.90
9810;DHT22;4944;52.514;13.192;2024-01-15T07:42:51;2.70;99.90
9810;DHT22;4944;52.514;13.192;2024-01-15T07:45:18;2.70;99.90
9810;DHT22;4944;52.514;13.192;2024-01-15T07:47:45;2.70;99.90
9810;DHT22;4944;52.514;13.192;2024-01-15T07:50:13;2.70;99.90
9810;DHT22;4944;52.514;13.192;2024-01-15T07:52:40;2.70;99.90
9810;DHT22;4944;52.514;13.192;2024-01-15T07:55:07;2.70;99.90
9810;DHT22;4944;52.514;13.192;2024-01-15T07:57:34;2.70;99.90
9810;DHT22;4944;52.514;13.192;2024-01-15T08:00:02;2.70;99.90
9810;DHT22;4944;52.514;13.192;2024-01-15T08:02:30;2.70;99.90
9810;DHT22;4944;52.514;13.192;2024-01-15T08:04:58;2.70;99.90
9810;DHT22;4944;52.514;13.192;2024-01-15T08:07:26;2.70;99.90
9810;DHT22;4944;52.514;13.192;2024-01-15T08:09:53;2.70;99.90
9810;DHT22;4944;52.514;13.192;2024-01-15T08:12:20;2.70;99.90
9810;DHT22;4944;52.514;13.192;2024-01-15T08:14:48;2.70;99.90
9810;DHT22;4944;52.514;13.192;2024-01-15T08:17:14;2.70;99.90
9810;DHT22;4944;52.514;13.192;2024-01-15T08:19:42;2.70;99.90
9810;DHT22;4944;52.514;13.192;2024-01-15T08:22:09;2.70;99.90
9810;DHT22;4944;52.514;13.192;2024-01-15T08:24:37;2.70;99.90
9810;DHT22;4944;52.514;13.192;2024-01-15T08:27:04;2.60;99.90
9810;DHT22;4944;52.514;13.192;2024-01-15T08:29:31;2.60;99.90
9810;DHT22;4944;52.514;13.192;2024-01-15T08:32:00;2.60;99.90
9810;DHT22;4944;52.514;13.192;2024-01-15T08:34:27;2.70;99.90
9810;DHT22;4944;52.514;13.192;2024-01-15T08:36:54;2.70;99.90
9810;DHT22;4944;52.514;13.192;2024-01-15T08:39:21;2.70;99.90
9810;DHT22;4944;52.514;13.192;2024-01-15T08:41:49;2.70;99.90
9810;DHT22;4944;52.514;13.192;2024-01-15T08:44:16;2.70;99.90
9810;DHT22;4944;52.514;13.192;2024-01-15T08:46:43;2.70;99.90
9810;DHT22;4944;52.514;13.192;2024-01-15T08:49:10;2.80;99.90
9810;DHT22;4944;52.514;13.192;2024-01-15T08:51:37;2.80;99.90
9810;DHT22;4944;52.514;13.192;2024-01-15T08:54:04;2.80;99.90
9810;DHT22;4944;52.514;13.192;2024-01-15T08:56:34;2.80;99.90
9810;DHT22;4944;52.514;13.192;2024-01-15T08:59:02;2.80;99.90
9810;DHT22;4944;52.514;13.192;2024-01-15T09:01:29;2.80;99.90
9810;DHT22;4944;52.514;13.192;2024-01-15T09:03:56;2.80;99.90
9810;DHT22;4944;52.514;13.192;2024-01-15T09:06:23;2.80;99.90
9810;DHT22;4944;52.514;13.192;2024-01-15T09:08:50;2.80;99.90
9810;DHT22;4944;52.514;13.192;2024-01-15T09:11:17;2.80;99.90
9810;DHT22;4944;52.514;13.192;2024-01-15T09:13:44;2.80;99.90
9810;DHT22;4944;52.514;13.192;2024-01-15T09:16:12;2.80;99.90
9810;DHT22;4944;52.514;13.192;2024-01-15T09:18:39;2.80;99.90
9810;DHT22;4944;52.514;13.192;2024-01-15T09:21:06;2.80;99.90
9810;DHT22;4944;52.514;13.192;2024-01-15T09:23:32;2.80;99.90
9810;DHT22;4944;52.514;13.192;2024-01-15T09:25:59;2.80;99.90
9810;DHT22;4944;52.514;13.192;2024-01-15T09:28:26;2.80;99.90
9810;DHT22;4944;52.514;13.192;2024-01-15T09:30:53;2.80;99.90
9810;DHT22;4944;52.514;13.192;2024-01-15T09:33:21;2.80;99.90
9810;DHT22;4944;52.514;13.192;2024-01-15T09:35:48;2.80;99.90
9810;DHT22;4944;52.514;13.192;2024-01-15T09:38:15;2.80;99.90
9810;DHT22;4944;52.514;13.192;2024-01-15T09:40:45;2.80;99.90
9810;DHT22;4944;52.514;13.192;2024-01-15T09:43:14;2.90;99.90
9810;DHT22;4944;52.514;13.192;2024-01-15T09:45:41;2.90;99.90
9810;DHT22;4944;52.514;13.192;2024-01-15T09:48:09;2.90;99.90
9810;DHT22;4944;52.514;13.192;2024-01-15T09:50:37;2.90;99.90
9810;DHT22;4944;52.514;13.192;2024-01-15T09:53:05;2.90;99.90
9810;DHT22;4944;52.514;13.192;2024-01-15T09:55:32;3.00;99.90
9810;DHT22;4944;52.514;13.192;2024-01-15T09:58:02;3.00;99.90
9810;DHT22;4944;52.514;13.192;2024-01-15T10:00:30;3.00;99.90
9810;DHT22;4944;52.514;13.192;2024-01-15T10:02:57;3.00;99.90
9810;DHT22;4944;52.514;13.192;2024-01-15T10:05:25;3.00;99.90
9810;DHT22;4944;52.514;13.192;2024-01-15T10:07:54;3.00;99.90
9810;DHT22;4944;52.514;13.192;2024-01-15T10:10:23;3.00;99.90
9810;DHT22;4944;52.514;13.192;2024-01-15T10:12:50;3.00;99.90
9810;DHT22;4944;52.514;13.192;2024-01-15T10:15:16;3.00;99.90
9810;DHT22;4944;52.514;13.192;2024-01-15T10:17:43;3.00;99.90
9810;DHT22;4944;52.514;13.192;2024-01-15T10:20:11;3.00;99.90
9810;DHT22;4944;52.514;13.192;2024-01-15T10:22:40;3.10;99.90
9810;DHT22;4944;52.514;13.192;2024-01-15T10:25:12;3.10;99.90
9810;DHT22;4944;52.514;13.192;2024-01-15T10:27:39;3.10;99.90
9810;DHT22;4944;52.514;13.192;2024-01-15T10:30:07;3.10;99.90
9810;DHT22;4944;52.514;13.192;2024-01-15T10:32:34;3.10;99.90
9810;DHT22;4944;52.514;13.192;2024-01-15T10:35:01;3.10;99.90
9810;DHT22;4944;52.514;13.192;2024-01-15T10:37:28;3.10;99.90
9810;DHT22;4944;52.514;13.192;2024-01-15T10:40:01;3.10;99.90
9810;DHT22;4944;52.514;13.192;2024-01-15T10:42:30;3.10;99.90
9810;DHT22;4944;52.514;13.192;2024-01-15T10:44:57;3.20;99.90
9810;DHT22;4944;52.514;13.192;2024-01-15T10:47:24;3.20;99.90
9810;DHT22;4944;52.514;13.192;2024-01-15T10:49:51;3.20;99.90
9810;DHT22;4944;52.514;13.192;2024-01-15T10:52:19;3.20;99.90
9810;DHT22;4944;52.514;13.192;2024-01-15T10:54:46;3.20;99.90
9810;DHT22;4944;52.514;13.192;2024-01-15T10:57:15;3.20;99.90
9810;DHT22;4944;52.514;13.192;2024-01-15T10:59:44;3.30;99.90
9810;DHT22;4944;52.514;13.192;2024-01-15T11:02:12;3.30;99.90
9810;DHT22;4944;52.514;13.192;2024-01-15T11:04:39;3.40;99.90
9810;DHT22;4944;52.514;13.192;2024-01-15T11:07:06;3.40;99.90
9810;DHT22;4944;52.514;13.192;2024-01-15T11:09:34;3.40;99.90
9810;DHT22;4944;52.514;13.192;2024-01-15T11:12:10;3.30;99.90
9810;DHT22;4944;52.514;13.192;2024-01-15T11:14:42;3.20;99.90
9810;DHT22;4944;52.514;13.192;2024-01-15T11:17:11;3.20;99.90
9810;DHT22;4944;52.514;13.192;2024-01-15T11:19:42;3.10;99.90
9810;DHT22;4944;52.514;13.192;2024-01-15T11:22:10;3.10;99.90
9810;DHT22;4944;52.514;13.192;2024-01-15T11:24:38;3.10;99.90
9810;DHT22;4944;52.514;13.192;2024-01-15T11:27:06;3.00;99.90
9810;DHT22;4944;52.514;13.192;2024-01-15T11:29:34;3.00;99.90
9810;DHT22;4944;52.514;13.192;2024-01-15T11:32:03;3.00;99.90
9810;DHT22;4944;52.514;13.192;2024-01-15T11:34:55;3.00;99.90
9810;DHT22;4944;52.514;13.192;2024-01-15T11:37:24;2.90;99.90
9810;DHT22;4944;52.514;13.192;2024-01-15T11:39:52;2.90;99.90
9810;DHT22;4944;52.514;13.192;2024-01-15T11:42:20;2.90;99.90
9810;DHT22;4944;52.514;13.192;2024-01-15T11:44:47;2.80;99.90
9810;DHT22;4944;52.514;13.192;2024-01-15T11:47:14;2.80;99.90
9810;DHT22;4944;52.514;13.192;2024-01-15T11:49:59;2.80;99.90
9810;DHT22;4944;52.514;13.192;2024-01-15T11:52:32;2.70;99.90
9810;DHT22;4944;52.514;13.192;2024-01-15T11:55:01;2.80;99.90
9810;DHT22;4944;52.514;13.192;2024-01-15T11:57:40;2.70;99.90
9810;DHT22;4944;52.514;13.192;2024-01-15T12:00:10;2.70;99.90
9810;DHT22;4944;52.514;13.192;2024-01-15T12:02:37;2.70;99.90
9810;DHT22;4944;52.514;13.192;2024-01-15T12:05:06;2.70;99.90
9810;DHT22;4944;52.514;13.192;2024-01-15T12:07:33;2.70;99.90
9810;DHT22;4944;52.514;13.192;2024-01-15T12:10:00;2.70;99.90
9810;DHT22;4944;52.514;13.192;2024-01-15T12:12:35;2.70;99.90
9810;DHT22;4944;52.514;13.192;2024-01-15T12:15:04;2.70;99.90
9810;DHT22;4944;52.514;13.192;2024-01-15T12:17:32;2.70;99.90
9810;DHT22;4944;52.514;13.192;2024-01-15T12:19:59;2.70;99.90
9810;DHT22;4944;52.514;13.192;2024-01-15T12:22:27;2.70;99.90
9810;DHT22;4944;52.514;13.192;2024-01-15T12:24:54;2.70;99.90
9810;DHT22;4944;52.514;13.192;2024-01-15T12:27:23;2.70;99.90
9810;DHT22;4944;52.514;13.192;2024-01-15T12:29:50;2.70;99.90
9810;DHT22;4944;52.514;13.192;2024-01-15T12:32:19;2.70;99.90
9810;DHT22;4944;52.514;13.192;2024-01-15T12:34:48;2.70;99.90
9810;DHT22;4944;52.514;13.192;2024-01-15T12:37:17;2.60;99.90
9810;DHT22;4944;52.514;13.192;2024-01-15T12:39:45;2.60;99.90
9810;DHT22;4944;52.514;13.192;2024-01-15T12:42:14;2.40;99.90
9810;DHT22;4944;52.514;13.192;2024-01-15T12:44:42;2.40;99.90
9810;DHT22;4944;52.514;13.192;2024-01-15T12:47:09;2.30;99.90
9810;DHT22;4944;52.514;13.192;2024-01-15T12:49:36;2.30;99.90
9810;DHT22;4944;52.514;13.192;2024-01-15T12:52:08;2.30;99.90
9810;DHT22;4944;52.514;13.192;2024-01-15T12:54:35;2.30;99.90
9810;DHT22;4944;52.514;13.192;2024-01-15T12:57:05;2.30;99.90
9810;DHT22;4944;52.514;13.192;2024-01-15T12:59:32;2.30;99.90
9810;DHT22;4944;52.514;13.192;2024-01-15T13:01:59;2.30;99.90
9810;DHT22;4944;52.514;13.192;2024-01-15T13:04:26;2.40;99.90
9810;DHT22;4944;52.514;13.192;2024-01-15T13:06:54;2.40;99.90
9810;DHT22;4944;52.514;13.192;2024-01-15T13:09:21;2.50;99.90
9810;DHT22;4944;52.514;13.192;2024-01-15T13:11:48;2.40;99.90
9810;DHT22;4944;52.514;13.192;2024-01-15T13:14:17;2.50;99.90
9810;DHT22;4944;52.514;13.192;2024-01-15T13:16:43;2.40;99.90
9810;DHT22;4944;52.514;13.192;2024-01-15T13:19:10;2.40;99.90
9810;DHT22;4944;52.514;13.192;2024-01-15T13:21:38;2.40;99.90
9810;DHT22;4944;52.514;13.192;2024-01-15T13:24:05;2.40;99.90
9810;DHT22;4944;52.514;13.192;2024-01-15T13:26:32;2.50;99.90
9810;DHT22;4944;52.514;13.192;2024-01-15T13:28:59;2.50;99.90
9810;DHT22;4944;52.514;13.192;2024-01-15T13:31:28;2.50;99.90
9810;DHT22;4944;52.514;13.192;2024-01-15T13:33:55;2.50;99.90
9810;DHT22;4944;52.514;13.192;2024-01-15T13:36:22;2.50;99.90
9810;DHT22;4944;52.514;13.192;2024-01-15T13:38:49;2.50;99.90
9810;DHT22;4944;52.514;13.192;2024-01-15T13:41:16;2.40;99.90
9810;DHT22;4944;52.514;13.192;2024-01-15T13:43:48;2.40;99.90
9810;DHT22;4944;52.514;13.192;2024-01-15T13:46:15;2.50;99.90
9810;DHT22;4944;52.514;13.192;2024-01-15T13:48:44;2.50;99.90
9810;DHT22;4944;52.514;13.192;2024-01-15T13:51:11;2.50;99.90
9810;DHT22;4944;52.514;13.192;2024-01-15T13:53:38;2.50;99.90
9810;DHT22;4944;52.514;13.192;2024-01-15T13:56:05;2.50;99.90
9810;DHT22;4944;52.514;13.192;2024-01-15T13:58:33;2.50;99.90
9810;DHT22;4944;52.514;13.192;2024-01-15T14:01:00;2.50;99.90
9810;DHT22;4944;52.514;13.192;2024-01-15T14:03:29;2.50;99.90
9810;DHT22;4944;52.514;13.192;2024-01-15T14:05:57;2.50;99.90
9810;DHT22;4944;52.514;13.192;2024-01-15T14:08:24;2.50;99.90
9810;DHT22;4944;52.514;13.192;2024-01-15T14:10:51;2.50;99.90
9810;DHT22;4944;52.514;13.192;2024-01-15T14:13:18;2.50;99.90
9810;DHT22;4944;52.514;13.192;2024-01-15T14:15:45;2.50;99.90
9810;DHT22;4944;52.514;13.192;2024-01-15T14:18:14;2.50;99.90
9810;DHT22;4944;52.514;13.192;2024-01-15T14:20:41;2.50;99.90
9810;DHT22;4944;52.514;13.192;2024-01-15T14:23:09;2.50;99.90
9810;DHT22;4944;52.514;13.192;2024-01-15T14:25:36;2.50;99.90
9810;DHT22;4944;52.514;13.192;2024-01-15T14:28:03;2.50;99.90
9810;DHT22;4944;52.514;13.192;2024-01-15T14:30:30;2.50;99.90
9810;DHT22;4944;52.514;13.192;2024-01-15T14:32:58;2.40;99.90
9810;DHT22;4944;52.514;13.192;2024-01-15T14:35:25;2.40;99.90
9810;DHT22;4944;52.514;13.192;2024-01-15T14:37:51;2.40;99.90
9810;DHT22;4944;52.514;13.192;2024-01-15T14:40:20;2.40;99.90
9810;DHT22;4944;52.514;13.192;2024-01-15T14:42:47;2.30;99.90
9810;DHT22;4944;52.514;13.192;2024-01-15T14:45:13;2.30;99.90
9810;DHT22;4944;52.514;13.192;2024-01-15T14:47:41;2.40;99.90
9810;DHT22;4944;52.514;13.192;2024-01-15T14:50:10;2.30;99.90
9810;DHT22;4944;52.514;13.192;2024-01-15T14:52:37;2.30;99.90
9810;DHT22;4944;52.514;13.192;2024-01-15T14:55:05;2.30;99.90
9810;DHT22;4944;52.514;13.192;2024-01-15T14:57:35;2.30;99.90
9810;DHT22;4944;52.514;13.192;2024-01-15T15:00:03;2.30;99.90
9810;DHT22;4944;52.514;13.192;2024-01-15T15:02:32;2.30;99.90
9810;DHT22;4944;52.514;13.192;2024-01-15T15:05:00;2.30;99.90
9810;DHT22;4944;52.514;13.192;2024-01-15T15:07:27;2.30;99.90
9810;DHT22;4944;52.514;13.192;2024-01-15T15:09:54;2.30;99.90
9810;DHT22;4944;52.514;13.192;2024-01-15T15:12:20;2.30;99.90
9810;DHT22;4944;52.514;13.192;2024-01-15T15:14:49;2.30;99.90
9810;DHT22;4944;52.514;13.192;2024-01-15T15:17:16;2.30;99.90
9810;DHT22;4944;52.514;13.192;2024-01-15T15:19:42;2.30;99.90
9810;DHT22;4944;52.514;13.192;2024-01-15T15:22:09;2.30;99.90
9810;DHT22;4944;52.514;13.192;2024-01-15T15:24:37;2.30;99.90
9810;DHT22;4944;52.514;13.192;2024-01-15T15:27:04;2.30;99.90
9810;DHT22;4944;52.514;13.192;2024-01-15T15:29:32;2.30;99.90
9810;DHT22;4944;52.514;13.192;2024-01-15T15:32:00;2.20;99.90
9810;DHT22;4944;52.514;13.192;2024-01-15T15:34:28;2.20;99.90
9810;DHT22;4944;52.514;13.192;2024-01-15T15:36:55;2.10;99.90
9810;DHT22;4944;52.514;13.192;2024-01-15T15:39:22;2.10;99.90
9810;DHT22;4944;52.514;13.192;2024-01-15T15:41:49;2.10;99.90
9810;DHT22;4944;52.514;13.192;2024-01-15T15:44:16;2.00;99.90
9810;DHT22;4944;52.514;13.192;2024-01-15T15:46:43;2.00;99.90
9810;DHT22;4944;52.514;13.192;2024-01-15T15:49:12;1.90;99.90
9810;DHT22;4944;52.514;13.192;2024-01-15T15:51:40;1.90;99.90
9810;DHT22;4944;52.514;13.192;2024-01-15T15:54:07;1.80;99.90
9810;DHT22;4944;52.514;13.192;2024-01-15T15:56:34;1.80;99.90
9810;DHT22;4944;52.514;13.192;2024-01-15T15:59:04;1.70;99.90
9810;DHT22;4944;52.514;13.192;2024-01-15T16:01:30;1.70;99.90
9810;DHT22;4944;52.514;13.192;2024-01-15T16:03:57;1.70;99.90